createdAt,value
2019-03-30T00:01:17.362Z,68.52
2019-03-30T00:03:48.810Z,68.06
2019-03-30T00:06:20.130Z,68.61
2019-03-30T00:08:51.477Z,68.74
2019-03-30T00:11:22.789Z,68.84
2019-03-30T00:13:54.169Z,68.70
2019-03-30T00:16:25.485Z,69.33
2019-03-30T00:18:56.784Z,69.27
2019-03-30T00:21:28.077Z,69.15
2019-03-30T00:24:03.782Z,68.57
2019-03-30T00:26:36.105Z,69.53
2019-03-30T00:29:07.439Z,69.50
2019-03-30T00:31:38.872Z,69.54
2019-03-30T00:34:10.132Z,68.75
2019-03-30T00:36:41.554Z,69.22
2019-03-30T00:39:12.936Z,69.40
2019-03-30T00:41:44.198Z,69.19
2019-03-30T00:44:15.603Z,69.65
2019-03-30T00:46:47.225Z,69.66
2019-03-30T00:49:18.599Z,69.65
2019-03-30T00:51:50.019Z,70.39
2019-03-30T00:54:22.644Z,70.38
2019-03-30T00:56:53.870Z,70.25
2019-03-30T00:59:25.117Z,69.72
2019-03-30T01:01:56.423Z,70.44
2019-03-30T01:04:27.787Z,69.94
2019-03-30T01:06:59.106Z,70.38
2019-03-30T01:09:30.510Z,70.71
2019-03-30T01:12:01.875Z,70.79
2019-03-30T01:14:33.283Z,70.79
2019-03-30T01:17:04.912Z,70.80
2019-03-30T01:19:36.193Z,71.06
2019-03-30T01:22:07.504Z,71.65
2019-03-30T01:24:38.873Z,70.99
2019-03-30T01:27:10.147Z,72.17
2019-03-30T01:29:41.469Z,72.06
2019-03-30T01:32:12.870Z,72.90
2019-03-30T01:34:44.405Z,73.16
2019-03-30T01:37:15.723Z,72.56
2019-03-30T01:39:47.223Z,72.25
2019-03-30T01:42:18.487Z,72.34
2019-03-30T01:44:49.973Z,73.12
2019-03-30T01:47:21.442Z,73.50
2019-03-30T01:49:54.475Z,72.11
2019-03-30T01:52:25.738Z,72.49
2019-03-30T01:54:57.001Z,73.87
2019-03-30T01:57:28.513Z,73.86
2019-03-30T02:00:00.785Z,73.79
2019-03-30T02:02:32.540Z,74.30
2019-03-30T02:05:04.647Z,74.31
2019-03-30T02:07:35.994Z,73.17
2019-03-30T02:10:08.973Z,73.81
2019-03-30T02:12:40.368Z,74.40
2019-03-30T02:15:11.953Z,74.09
2019-03-30T02:17:43.266Z,72.41
2019-03-30T02:20:30.591Z,72.29
2019-03-30T02:22:54.916Z,72.36
2019-03-30T02:25:26.183Z,72.86
2019-03-30T02:27:57.572Z,74.15
2019-03-30T02:30:28.919Z,74.29
2019-03-30T02:33:00.329Z,73.39
2019-03-30T02:35:31.653Z,73.26
2019-03-30T02:38:03.230Z,72.95
2019-03-30T02:40:34.562Z,73.25
2019-03-30T02:43:06.173Z,72.31
2019-03-30T02:45:37.527Z,72.54
2019-03-30T02:48:09.047Z,73.33
2019-03-30T02:50:49.509Z,73.39
2019-03-30T02:53:13.519Z,73.73
2019-03-30T02:55:44.845Z,73.80
2019-03-30T02:58:16.226Z,73.19
2019-03-30T03:00:47.614Z,73.37
2019-03-30T03:03:19.217Z,74.19
2019-03-30T03:05:50.645Z,74.41
2019-03-30T03:08:22.318Z,75.39
2019-03-30T03:10:53.770Z,75.75
2019-03-30T03:13:25.111Z,75.13
2019-03-30T03:15:56.376Z,76.13
2019-03-30T03:18:27.759Z,75.30
2019-03-30T03:21:07.423Z,76.64
2019-03-30T03:23:32.154Z,76.50
2019-03-30T03:26:03.583Z,77.31
2019-03-30T03:28:35.052Z,77.03
2019-03-30T03:31:06.382Z,76.84
2019-03-30T03:33:37.848Z,78.07
2019-03-30T03:36:09.334Z,77.24
2019-03-30T03:38:40.686Z,78.93
2019-03-30T03:41:13.003Z,78.27
2019-03-30T03:43:44.389Z,78.24
2019-03-30T03:46:15.729Z,78.76
2019-03-30T03:48:47.173Z,77.86
2019-03-30T03:51:26.155Z,77.96
2019-03-30T03:53:53.863Z,78.24
2019-03-30T03:56:27.030Z,77.87
2019-03-30T03:58:58.577Z,77.07
2019-03-30T04:01:31.767Z,78.21
2019-03-30T04:04:04.471Z,77.04
2019-03-30T04:06:39.147Z,77.11
2019-03-30T04:09:10.527Z,77.18
2019-03-30T04:11:44.058Z,77.75
2019-03-30T04:14:18.020Z,78.37
2019-03-30T04:16:49.386Z,78.45
2019-03-30T04:19:20.791Z,78.57
2019-03-30T04:21:52.117Z,78.65
2019-03-30T04:24:23.377Z,79.27
2019-03-30T04:26:54.722Z,79.02
2019-03-30T04:29:26.056Z,80.51
2019-03-30T04:31:57.376Z,80.39
2019-03-30T04:34:28.688Z,80.73
2019-03-30T04:36:59.995Z,80.55
2019-03-30T04:39:31.380Z,80.53
2019-03-30T04:42:02.913Z,80.19
2019-03-30T04:44:34.255Z,79.55
2019-03-30T04:47:06.131Z,79.61
2019-03-30T04:49:37.898Z,79.20
2019-03-30T04:52:11.714Z,78.99
2019-03-30T04:54:43.206Z,78.99
2019-03-30T04:57:14.613Z,79.29
2019-03-30T05:00:14.738Z,79.27
2019-03-30T05:02:48.533Z,79.50
2019-03-30T05:05:19.840Z,79.61
2019-03-30T05:07:51.294Z,79.24
2019-03-30T05:10:22.593Z,78.72
2019-03-30T05:12:53.917Z,79.89
2019-03-30T05:15:25.436Z,81.08
2019-03-30T05:17:56.832Z,80.99
2019-03-30T05:20:28.220Z,80.36
2019-03-30T05:22:59.791Z,78.99
2019-03-30T05:25:31.128Z,79.27
2019-03-30T05:28:02.573Z,77.41
2019-03-30T05:30:33.900Z,77.50
2019-03-30T05:33:06.992Z,77.75
2019-03-30T05:35:39.551Z,77.88
2019-03-30T05:38:10.945Z,78.52
2019-03-30T05:40:42.228Z,79.12
2019-03-30T05:43:13.530Z,79.36
2019-03-30T05:45:44.898Z,79.22
2019-03-30T05:48:16.199Z,79.67
2019-03-30T05:50:47.926Z,79.79
2019-03-30T05:53:19.226Z,79.72
2019-03-30T05:55:50.700Z,79.72
2019-03-30T05:58:22.058Z,79.34
2019-03-30T06:00:53.438Z,78.96
2019-03-30T06:03:24.909Z,79.49
2019-03-30T06:06:00.860Z,79.80
2019-03-30T06:08:32.165Z,80.37
2019-03-30T06:11:03.427Z,80.97
2019-03-30T06:13:34.709Z,81.59
2019-03-30T06:16:06.149Z,81.62
2019-03-30T06:18:38.515Z,81.43
2019-03-30T06:21:10.089Z,81.16
2019-03-30T06:23:41.490Z,80.93
2019-03-30T06:26:14.553Z,80.92
2019-03-30T06:28:46.018Z,80.82
2019-03-30T06:31:17.409Z,80.78
2019-03-30T06:33:49.771Z,81.03
2019-03-30T06:36:21.011Z,81.45
2019-03-30T06:38:52.463Z,82.08
2019-03-30T06:41:24.894Z,82.20
2019-03-30T06:43:56.249Z,82.09
2019-03-30T06:46:31.097Z,81.99
2019-03-30T06:49:02.539Z,81.99
2019-03-30T06:51:33.834Z,82.18
2019-03-30T06:54:08.281Z,82.14
2019-03-30T06:56:39.519Z,82.07
2019-03-30T06:59:10.816Z,81.98
2019-03-30T07:01:42.519Z,81.82
2019-03-30T07:04:15.541Z,81.31
2019-03-30T07:06:47.620Z,80.79
2019-03-30T07:09:21.935Z,81.03
2019-03-30T07:11:56.262Z,80.76
2019-03-30T07:14:32.419Z,80.32
2019-03-30T07:17:05.624Z,80.11
2019-03-30T07:19:40.331Z,79.81
2019-03-30T07:22:11.883Z,79.45
2019-03-30T07:24:43.404Z,79.69
2019-03-30T07:27:18.338Z,79.62
2019-03-30T07:29:49.698Z,78.73
2019-03-30T07:32:21.101Z,78.05
2019-03-30T07:34:52.476Z,78.09
2019-03-30T07:37:23.709Z,78.06
2019-03-30T07:39:55.108Z,78.45
2019-03-30T07:42:26.586Z,77.68
2019-03-30T07:44:59.913Z,76.76
2019-03-30T07:47:32.861Z,76.68
2019-03-30T07:50:08.926Z,76.11
2019-03-30T07:52:40.355Z,75.69
2019-03-30T07:55:11.944Z,74.81
2019-03-30T07:57:43.392Z,75.40
2019-03-30T08:00:15.690Z,74.51
2019-03-30T08:02:46.922Z,75.12
2019-03-30T08:05:18.308Z,74.26
2019-03-30T08:07:49.798Z,73.93
2019-03-30T08:10:21.241Z,73.17
2019-03-30T08:12:52.700Z,72.53
2019-03-30T08:15:24.191Z,71.83
2019-03-30T08:17:55.543Z,70.99
2019-03-30T08:20:28.351Z,70.93
2019-03-30T08:22:59.589Z,70.46
2019-03-30T08:25:31.053Z,69.40
2019-03-30T08:28:02.493Z,69.42
2019-03-30T08:30:33.810Z,68.55
2019-03-30T08:33:05.113Z,67.61
2019-03-30T08:35:36.425Z,66.43
2019-03-30T08:38:07.669Z,67.54
2019-03-30T08:40:38.916Z,65.56
2019-03-30T08:43:10.299Z,66.19
2019-03-30T08:45:41.589Z,64.68
2019-03-30T08:48:13.035Z,64.82
2019-03-30T08:50:44.558Z,65.12
2019-03-30T08:53:17.622Z,63.71
2019-03-30T08:55:51.011Z,62.06
2019-03-30T08:58:22.609Z,62.98
2019-03-30T09:00:53.859Z,62.52
2019-03-30T09:03:25.125Z,61.32
2019-03-30T09:05:57.001Z,61.11
2019-03-30T09:08:28.317Z,59.40
2019-03-30T09:10:59.863Z,61.38
2019-03-30T09:13:31.604Z,60.24
2019-03-30T09:16:03.072Z,59.98
2019-03-30T09:18:34.368Z,59.33
2019-03-30T09:21:06.107Z,59.17
2019-03-30T09:23:37.493Z,59.44
2019-03-30T09:26:08.892Z,59.59
2019-03-30T09:28:40.856Z,57.55
2019-03-30T09:31:12.219Z,57.49
2019-03-30T09:33:43.691Z,61.42
2019-03-30T09:36:15.156Z,56.40
2019-03-30T09:38:47.682Z,56.24
2019-03-30T09:41:19.083Z,57.30
2019-03-30T09:43:50.533Z,58.14
2019-03-30T09:46:21.800Z,56.12
2019-03-30T09:48:53.037Z,57.18
2019-03-30T09:51:24.491Z,58.01
2019-03-30T09:53:55.959Z,56.87
2019-03-30T09:56:27.224Z,55.63
2019-03-30T09:58:58.626Z,55.23
2019-03-30T10:01:30.107Z,55.67
2019-03-30T10:04:02.471Z,55.26
2019-03-30T10:06:34.814Z,55.51
2019-03-30T10:09:07.529Z,52.48
2019-03-30T10:11:38.859Z,51.96
2019-03-30T10:14:10.366Z,51.56
2019-03-30T10:16:43.709Z,52.14
2019-03-30T10:19:14.962Z,52.30
2019-03-30T10:21:46.467Z,49.55
2019-03-30T10:24:17.930Z,50.73
2019-03-30T10:26:49.324Z,50.99
2019-03-30T10:29:20.718Z,47.71
2019-03-30T10:31:51.967Z,48.43
2019-03-30T10:34:24.467Z,49.09
2019-03-30T10:36:55.792Z,47.31
2019-03-30T10:39:27.066Z,46.82
2019-03-30T10:41:58.383Z,45.61
2019-03-30T10:44:29.673Z,46.93
2019-03-30T10:47:01.120Z,47.67
2019-03-30T10:49:32.518Z,45.57
2019-03-30T10:52:03.957Z,44.24
2019-03-30T10:54:35.359Z,43.75
2019-03-30T10:57:10.126Z,45.84
2019-03-30T10:59:47.504Z,45.00
2019-03-30T11:02:19.053Z,42.16
2019-03-30T11:04:50.286Z,41.82
2019-03-30T11:07:23.554Z,42.06
2019-03-30T11:09:55.324Z,43.15
2019-03-30T11:12:28.215Z,43.03
2019-03-30T11:14:59.885Z,41.49
2019-03-30T11:17:31.210Z,42.15
2019-03-30T11:20:02.608Z,41.31
2019-03-30T11:22:33.973Z,37.88
2019-03-30T11:25:08.502Z,39.16
2019-03-30T11:27:40.019Z,39.34
2019-03-30T11:30:11.413Z,38.02
2019-03-30T11:32:42.786Z,37.60
2019-03-30T11:35:14.047Z,40.08
2019-03-30T11:37:45.387Z,36.87
2019-03-30T11:40:22.581Z,37.69
2019-03-30T11:42:55.924Z,36.66
2019-03-30T11:45:27.306Z,37.01
2019-03-30T11:47:58.873Z,37.62
2019-03-30T11:50:30.194Z,37.40
2019-03-30T11:53:01.624Z,36.85
2019-03-30T11:55:32.942Z,37.82
2019-03-30T11:58:04.307Z,37.27
2019-03-30T12:00:35.649Z,37.13
2019-03-30T12:03:08.740Z,33.60
2019-03-30T12:05:42.113Z,31.85
2019-03-30T12:08:13.517Z,33.59
2019-03-30T12:10:50.995Z,34.58
2019-03-30T12:13:22.651Z,35.27
2019-03-30T12:15:53.966Z,33.55
2019-03-30T12:18:25.456Z,29.15
2019-03-30T12:20:56.803Z,30.23
2019-03-30T12:23:28.321Z,29.84
2019-03-30T12:25:59.566Z,31.50
2019-03-30T12:28:32.579Z,28.59
2019-03-30T12:31:03.901Z,27.75
2019-03-30T12:33:35.197Z,30.46
2019-03-30T12:36:06.583Z,27.82
2019-03-30T12:38:38.036Z,28.27
2019-03-30T12:41:09.413Z,28.34
2019-03-30T12:43:40.726Z,27.90
2019-03-30T12:46:12.091Z,28.42
2019-03-30T12:48:43.578Z,26.60
2019-03-30T12:51:14.950Z,26.98
2019-03-30T12:53:50.402Z,27.96
2019-03-30T12:56:20.913Z,26.75
2019-03-30T12:58:52.158Z,27.61
2019-03-30T13:01:23.635Z,30.04
2019-03-30T13:03:55.973Z,28.43
2019-03-30T13:06:27.283Z,29.10
2019-03-30T13:08:58.638Z,29.39
2019-03-30T13:11:29.966Z,27.09
2019-03-30T13:14:01.422Z,28.43
2019-03-30T13:16:32.943Z,27.50
2019-03-30T13:19:04.328Z,28.69
2019-03-30T13:21:35.630Z,25.94
2019-03-30T13:24:07.097Z,26.26
2019-03-30T13:26:38.494Z,27.19
2019-03-30T13:29:09.868Z,23.48
2019-03-30T13:31:42.093Z,23.83
2019-03-30T13:34:19.473Z,24.05
2019-03-30T13:36:50.957Z,26.26
2019-03-30T13:39:22.310Z,27.09
2019-03-30T13:41:53.698Z,27.76
2019-03-30T13:44:34.209Z,26.18
2019-03-30T13:47:05.652Z,26.15
2019-03-30T13:49:38.039Z,26.33
2019-03-30T13:52:11.358Z,25.78
2019-03-30T13:54:42.801Z,24.42
2019-03-30T13:57:15.068Z,24.65
2019-03-30T13:59:52.994Z,25.38
2019-03-30T14:02:28.521Z,24.94
2019-03-30T14:05:00.006Z,26.39
2019-03-30T14:07:32.913Z,27.77
2019-03-30T14:10:08.824Z,28.58
2019-03-30T14:12:40.290Z,26.23
2019-03-30T14:22:43.970Z,26.25
2019-03-30T14:25:22.099Z,26.00
2019-03-30T14:27:53.502Z,25.30
2019-03-30T14:30:25.105Z,25.32
2019-03-30T14:32:56.628Z,25.16
2019-03-30T14:35:29.700Z,25.89
2019-03-30T14:38:29.416Z,25.93
2019-03-30T14:41:04.000Z,25.82
2019-03-30T14:43:35.565Z,25.83
2019-03-30T14:46:09.591Z,25.07
2019-03-30T14:48:40.513Z,25.06
2019-03-30T14:51:15.899Z,25.23
2019-03-30T14:53:47.876Z,26.35
2019-03-30T14:56:19.119Z,25.60
2019-03-30T14:58:50.594Z,25.06
2019-03-30T15:01:25.297Z,25.29
2019-03-30T15:03:57.002Z,23.88
2019-03-30T15:06:29.567Z,22.79
2019-03-30T15:09:05.175Z,24.16
2019-03-30T15:11:38.085Z,23.78
2019-03-30T15:14:12.426Z,24.42
2019-03-30T15:16:43.739Z,24.36
2019-03-30T15:19:15.050Z,21.56
2019-03-30T15:21:46.391Z,23.13
2019-03-30T15:24:17.753Z,25.21
2019-03-30T15:26:59.697Z,22.77
2019-03-30T15:29:25.357Z,22.57
2019-03-30T15:31:56.755Z,23.27
2019-03-30T15:34:28.036Z,22.97
2019-03-30T15:36:59.357Z,23.47
2019-03-30T15:39:37.197Z,24.14
2019-03-30T15:42:08.601Z,23.50
2019-03-30T15:44:40.784Z,22.57
2019-03-30T15:47:12.315Z,23.14
2019-03-30T15:49:43.948Z,23.35
2019-03-30T15:52:15.584Z,24.18
2019-03-30T15:54:48.949Z,22.85
2019-03-30T15:57:20.319Z,23.13
2019-03-30T15:59:53.268Z,23.00
2019-03-30T16:02:25.622Z,23.26
2019-03-30T16:04:56.980Z,23.85
2019-03-30T16:07:29.298Z,22.93
2019-03-30T16:10:03.986Z,23.34
2019-03-30T16:12:35.483Z,23.63
2019-03-30T16:15:07.859Z,23.24
2019-03-30T16:17:40.930Z,23.37
2019-03-30T16:20:13.235Z,23.63
2019-03-30T16:22:46.185Z,24.19
2019-03-30T16:25:21.256Z,24.64
2019-03-30T16:27:52.493Z,23.91
2019-03-30T16:30:27.136Z,24.46
2019-03-30T16:32:58.466Z,24.66
2019-03-30T16:35:31.123Z,24.51
2019-03-30T16:38:02.605Z,24.84
2019-03-30T16:40:34.267Z,23.74
2019-03-30T16:43:08.688Z,24.58
2019-03-30T16:45:40.285Z,24.14
2019-03-30T16:48:14.628Z,23.43
2019-03-30T16:50:46.653Z,23.52
2019-03-30T16:53:18.137Z,24.50
2019-03-30T16:55:49.684Z,24.34
2019-03-30T16:58:21.037Z,22.32
2019-03-30T17:00:56.790Z,20.41
2019-03-30T17:03:25.746Z,20.45
2019-03-30T17:06:01.220Z,20.12
2019-03-30T17:08:32.499Z,19.01
2019-03-30T17:11:04.032Z,19.71
2019-03-30T17:13:35.264Z,20.32
2019-03-30T17:16:07.485Z,20.95
2019-03-30T17:18:39.083Z,21.57
2019-03-30T17:21:10.538Z,23.38
2019-03-30T17:23:41.879Z,22.32
2019-03-30T17:26:16.980Z,23.03
2019-03-30T17:28:48.440Z,23.45
2019-03-30T17:31:24.180Z,23.01
2019-03-30T17:33:55.433Z,23.44
2019-03-30T17:36:29.350Z,26.37
2019-03-30T17:39:04.026Z,26.64
2019-03-30T17:41:38.126Z,26.96
2019-03-30T17:44:09.702Z,26.89
2019-03-30T17:47:01.629Z,29.29
2019-03-30T17:49:32.063Z,26.52
2019-03-30T17:52:12.575Z,26.50
2019-03-30T17:58:30.058Z,27.41
2019-03-30T18:01:01.659Z,30.16
2019-03-30T18:03:33.131Z,29.99
2019-03-30T18:06:10.005Z,30.06
2019-03-30T18:08:49.605Z,28.85
2019-03-30T18:11:36.781Z,29.72
2019-03-30T18:14:08.015Z,30.24
2019-03-30T18:16:41.037Z,30.79
2019-03-30T18:22:34.368Z,33.00
2019-03-30T18:25:17.499Z,33.41
2019-03-30T18:27:55.639Z,33.63
2019-03-30T18:30:40.908Z,33.20
2019-03-30T18:33:12.296Z,33.59
2019-03-30T18:35:45.386Z,33.90
2019-03-30T18:38:17.596Z,33.99
2019-03-30T18:40:57.242Z,34.56
2019-03-30T18:43:42.510Z,33.35
2019-03-30T18:46:21.540Z,33.78
2019-03-30T18:48:53.003Z,33.89
2019-03-30T18:51:28.264Z,34.09
2019-03-30T18:54:02.299Z,34.19
2019-03-30T18:56:33.700Z,34.89
2019-03-30T18:59:05.104Z,36.32
2019-03-30T19:01:44.239Z,36.43
2019-03-30T19:04:16.076Z,36.29
2019-03-30T19:06:52.506Z,35.98
2019-03-30T19:09:24.030Z,37.76
2019-03-30T19:11:55.461Z,37.21
2019-03-30T19:14:27.055Z,35.52
2019-03-30T19:16:58.459Z,36.66
2019-03-30T19:19:34.889Z,35.71
2019-03-30T19:22:06.212Z,36.23
2019-03-30T19:24:37.622Z,36.49
2019-03-30T19:27:09.019Z,36.80
2019-03-30T19:29:40.680Z,37.52
2019-03-30T19:32:12.283Z,38.19
2019-03-30T19:34:43.809Z,39.49
2019-03-30T19:37:15.209Z,39.40
2019-03-30T19:39:49.350Z,40.18
2019-03-30T19:42:20.968Z,41.12
2019-03-30T19:44:54.031Z,43.72
2019-03-30T19:47:25.766Z,43.86
2019-03-30T19:49:57.286Z,43.06
2019-03-30T19:52:39.722Z,42.89
2019-03-30T19:55:02.158Z,41.64
2019-03-30T19:57:35.429Z,41.31
2019-03-30T20:00:12.784Z,44.27
2019-03-30T20:02:44.563Z,44.15
2019-03-30T20:05:16.860Z,43.99
2019-03-30T20:07:48.408Z,42.12
2019-03-30T20:10:20.208Z,44.43
2019-03-30T20:12:51.498Z,44.28
2019-03-30T20:15:22.963Z,45.41
2019-03-30T20:17:54.366Z,46.52
2019-03-30T20:20:25.965Z,47.14
2019-03-30T20:22:57.341Z,47.39
2019-03-30T20:25:28.733Z,47.42
2019-03-30T20:27:59.997Z,47.06
2019-03-30T20:30:31.484Z,48.27
2019-03-30T20:33:02.749Z,45.17
2019-03-30T20:35:36.152Z,45.72
2019-03-30T20:38:07.544Z,48.69
2019-03-30T20:40:40.174Z,48.31
2019-03-30T20:43:12.500Z,49.83
2019-03-30T20:45:43.899Z,49.11
2019-03-30T20:48:15.221Z,47.66
2019-03-30T20:50:46.675Z,48.25
2019-03-30T20:53:18.006Z,48.29
2019-03-30T20:55:49.384Z,49.14
2019-03-30T20:58:20.711Z,49.02
2019-03-30T21:00:52.171Z,48.93
2019-03-30T21:03:23.837Z,49.44
2019-03-30T21:05:55.601Z,49.33
2019-03-30T21:08:26.861Z,49.98
2019-03-30T21:10:58.305Z,49.96
2019-03-30T21:13:29.686Z,50.58
2019-03-30T21:16:01.215Z,50.46
2019-03-30T21:18:32.534Z,49.05
2019-03-30T21:21:03.900Z,50.17
2019-03-30T21:23:35.763Z,49.40
2019-03-30T21:26:08.222Z,51.31
2019-03-30T21:28:39.635Z,50.50
2019-03-30T21:31:11.024Z,49.90
2019-03-30T21:33:42.348Z,51.72
2019-03-30T21:36:13.712Z,50.47
2019-03-30T21:38:44.972Z,51.20
2019-03-30T21:41:16.274Z,51.89
2019-03-30T21:43:47.640Z,52.10
2019-03-30T21:46:19.210Z,53.12
2019-03-30T21:48:54.493Z,52.87
2019-03-30T21:51:28.628Z,53.91
2019-03-30T21:53:59.863Z,53.89
2019-03-30T21:56:31.307Z,52.21
2019-03-30T21:59:02.745Z,53.35
2019-03-30T22:01:34.182Z,53.60
2019-03-30T22:04:06.487Z,54.06
2019-03-30T22:06:38.318Z,51.99
2019-03-30T22:09:10.271Z,52.10
2019-03-30T22:11:41.706Z,51.92
2019-03-30T22:14:13.510Z,53.68
2019-03-30T22:16:44.882Z,54.01
2019-03-30T22:19:16.225Z,53.28
2019-03-30T22:21:47.505Z,53.81
2019-03-30T22:24:18.888Z,55.14
2019-03-30T22:26:50.253Z,55.84
2019-03-30T22:29:22.746Z,55.32
2019-03-30T22:31:55.060Z,56.54
2019-03-30T22:34:28.366Z,56.03
2019-03-30T22:36:59.752Z,55.42
2019-03-30T22:39:31.015Z,54.00
2019-03-30T22:42:02.313Z,55.71
2019-03-30T22:44:33.602Z,56.19
2019-03-30T22:47:05.651Z,55.91
2019-03-30T22:49:37.975Z,57.03
2019-03-30T22:52:10.936Z,56.30
2019-03-30T22:54:42.226Z,54.89
2019-03-30T22:57:13.658Z,55.46
2019-03-30T22:59:45.053Z,55.63
2019-03-30T23:02:16.533Z,54.88
2019-03-30T23:04:47.912Z,55.34
2019-03-30T23:07:19.342Z,56.47
2019-03-30T23:09:50.627Z,56.61
2019-03-30T23:12:21.954Z,56.21
2019-03-30T23:14:54.784Z,55.52
2019-03-30T23:17:26.337Z,56.08
2019-03-30T23:19:57.762Z,56.73
2019-03-30T23:22:30.593Z,56.75
2019-03-30T23:25:01.838Z,57.12
2019-03-30T23:27:33.467Z,58.44
2019-03-30T23:30:07.682Z,59.30
2019-03-30T23:32:39.268Z,57.82
2019-03-30T23:35:10.840Z,59.36
2019-03-30T23:37:43.800Z,58.95
2019-03-30T23:40:15.253Z,58.91
2019-03-30T23:42:46.682Z,57.57
2019-03-30T23:45:18.150Z,57.30
2019-03-30T23:47:49.699Z,58.03
2019-03-30T23:50:20.931Z,58.51
2019-03-30T23:52:52.354Z,56.69
2019-03-30T23:55:23.609Z,57.08
2019-03-30T23:57:54.971Z,58.44
